Time;durP1;ratioP1;P1;durP2;ratioP2;P2;SDS_P1;SDS_P2;PMS_P1;PMS_P2;Temp;Humidity;BMP_temperature;BMP_pressure;BME280_temperature;BME280_humidity;BME280_pressure;Samples;Min_cycle;Max_cycle;Signal;HPM_P1;HPM_P2
2023/04/27 00:00:59;;;;;;;;;;;15.90;44.10;;;;;;5056490;28;19921;-68
2023/04/27 00:03:24;;;;;;;;;;;15.80;44.00;;;;;;5056623;28;19925;-68
2023/04/27 00:05:50;;;;;;;;;;;15.80;44.00;;;;;;5060222;28;19924;-68
2023/04/27 00:08:16;;;;;;;;;;;15.80;44.00;;;;;;5055872;28;19925;-68
2023/04/27 00:10:41;;;;;;;;;;;15.80;44.00;;;;;;5060640;28;20379;-68
2023/04/27 00:13:07;;;;;;;;;;;15.80;44.10;;;;;;5059522;28;20453;-68
2023/04/27 00:15:32;;;;;;;;;;;15.80;44.00;;;;;;5057515;28;19925;-68
2023/04/27 00:17:58;;;;;;;;;;;15.80;44.00;;;;;;5060766;28;20392;-68
2023/04/27 00:20:24;;;;;;;;;;;15.80;44.00;;;;;;5060660;28;19921;-67
2023/04/27 00:22:49;;;;;;;;;;;15.70;44.00;;;;;;5060446;28;19925;-68
2023/04/27 00:25:15;;;;;;;;;;;15.70;44.00;;;;;;5056247;28;19921;-67
2023/04/27 00:27:40;;;;;;;;;;;15.80;44.10;;;;;;5060364;28;19931;-67
2023/04/27 00:30:06;;;;;;;;;;;15.70;44.00;;;;;;5077193;28;19931;-68
2023/04/27 00:32:32;;;;;;;;;;;15.70;44.00;;;;;;5056420;28;19921;-68
2023/04/27 00:34:57;;;;;;;;;;;15.70;44.00;;;;;;5055155;28;19931;-68
2023/04/27 00:37:23;;;;;;;;;;;15.70;44.10;;;;;;5057319;28;20411;-68
2023/04/27 00:39:49;;;;;;;;;;;15.70;44.10;;;;;;5054421;28;19967;-67
2023/04/27 00:42:18;;;;;;;;;;;15.70;44.10;;;;;;5058933;28;19920;-67
2023/04/27 00:44:44;;;;;;;;;;;15.70;44.10;;;;;;5072269;28;19921;-67
2023/04/27 00:47:10;;;;;;;;;;;15.70;44.00;;;;;;5060968;28;19921;-68
2023/04/27 00:49:35;;;;;;;;;;;15.80;43.90;;;;;;5057261;28;19974;-67
2023/04/27 00:52:01;;;;;;;;;;;15.80;43.80;;;;;;5058517;28;19975;-67
2023/04/27 00:54:26;;;;;;;;;;;15.90;43.50;;;;;;5056685;28;20240;-67
2023/04/27 00:56:52;;;;;;;;;;;16.10;43.30;;;;;;5056937;28;19925;-67
2023/04/27 00:59:18;;;;;;;;;;;16.20;43.00;;;;;;5057777;28;19929;-67
2023/04/27 01:01:45;;;;;;;;;;;16.20;42.70;;;;;;5057751;28;19921;-68
2023/04/27 01:04:10;;;;;;;;;;;16.30;42.70;;;;;;5060289;28;19924;-67
2023/04/27 01:06:36;;;;;;;;;;;16.30;42.50;;;;;;5059153;28;19969;-67
2023/04/27 01:09:04;;;;;;;;;;;16.30;42.50;;;;;;5059140;28;19928;-67
2023/04/27 01:11:29;;;;;;;;;;;16.30;42.40;;;;;;5065374;28;19920;-67
2023/04/27 01:13:55;;;;;;;;;;;16.30;42.30;;;;;;5060064;28;19921;-67
2023/04/27 01:16:21;;;;;;;;;;;16.30;42.20;;;;;;5075549;28;19940;-68
2023/04/27 01:18:47;;;;;;;;;;;16.30;42.20;;;;;;5079132;28;20018;-67
2023/04/27 01:21:12;;;;;;;;;;;16.30;42.20;;;;;;5061771;28;20471;-67
2023/04/27 01:23:38;;;;;;;;;;;16.30;42.10;;;;;;5059738;28;19943;-68
2023/04/27 01:26:03;;;;;;;;;;;16.30;42.10;;;;;;5079831;28;19921;-67
2023/04/27 01:28:29;;;;;;;;;;;16.30;42.10;;;;;;5059126;28;19971;-67
2023/04/27 01:30:54;;;;;;;;;;;16.30;42.10;;;;;;5061241;28;20011;-67
2023/04/27 01:33:20;;;;;;;;;;;16.30;42.10;;;;;;5061873;28;20422;-67
2023/04/27 01:35:45;;;;;;;;;;;16.30;42.10;;;;;;5058671;28;19921;-67
2023/04/27 01:38:11;;;;;;;;;;;16.30;42.10;;;;;;5064973;28;19924;-67
2023/04/27 01:40:37;;;;;;;;;;;16.30;42.10;;;;;;5059112;28;19966;-67
2023/04/27 01:43:02;;;;;;;;;;;16.30;42.10;;;;;;5078011;28;20536;-67
2023/04/27 01:45:28;;;;;;;;;;;16.30;42.00;;;;;;5061071;28;19921;-67
2023/04/27 01:47:53;;;;;;;;;;;16.30;42.10;;;;;;5063347;28;19967;-67
2023/04/27 01:50:19;;;;;;;;;;;16.30;42.10;;;;;;5058760;28;19971;-67
2023/04/27 01:52:45;;;;;;;;;;;16.30;42.10;;;;;;5058973;28;19921;-67
2023/04/27 01:55:10;;;;;;;;;;;16.30;42.10;;;;;;5058569;28;20078;-67
2023/04/27 01:57:36;;;;;;;;;;;16.30;42.00;;;;;;5062038;28;20019;-67
2023/04/27 02:00:03;;;;;;;;;;;16.30;42.00;;;;;;5058076;28;19921;-67
2023/04/27 02:02:29;;;;;;;;;;;16.20;42.00;;;;;;5060210;28;20487;-68
2023/04/27 02:04:54;;;;;;;;;;;16.20;42.00;;;;;;5059690;28;20007;-67
2023/04/27 02:07:20;;;;;;;;;;;16.20;42.00;;;;;;5060108;28;19921;-67
2023/04/27 02:09:45;;;;;;;;;;;16.20;42.00;;;;;;5059825;28;19920;-67
2023/04/27 02:12:11;;;;;;;;;;;16.20;42.00;;;;;;5058588;28;20284;-67
2023/04/27 02:14:36;;;;;;;;;;;16.20;41.90;;;;;;5056169;28;19928;-67
2023/04/27 02:17:02;;;;;;;;;;;16.20;41.90;;;;;;5058162;28;19927;-67
2023/04/27 02:19:27;;;;;;;;;;;16.20;41.90;;;;;;5057525;28;20005;-67
2023/04/27 02:21:53;;;;;;;;;;;16.20;41.90;;;;;;5062493;28;20001;-67
2023/04/27 02:24:18;;;;;;;;;;;16.20;41.90;;;;;;5059095;28;19972;-67
2023/04/27 02:26:44;;;;;;;;;;;16.20;41.90;;;;;;5059654;28;19921;-67
2023/04/27 02:29:10;;;;;;;;;;;16.20;41.90;;;;;;5061601;28;19971;-67
2023/04/27 02:31:35;;;;;;;;;;;16.20;41.80;;;;;;5057646;28;20335;-68
2023/04/27 02:34:01;;;;;;;;;;;16.20;41.80;;;;;;5059173;28;19999;-67
2023/04/27 02:36:26;;;;;;;;;;;16.20;41.70;;;;;;5058790;28;19925;-67
2023/04/27 02:38:52;;;;;;;;;;;16.20;41.70;;;;;;5060709;28;19921;-67
2023/04/27 02:41:17;;;;;;;;;;;16.20;41.70;;;;;;5061852;28;19924;-67
2023/04/27 02:43:43;;;;;;;;;;;16.10;41.70;;;;;;5056463;28;20296;-67
2023/04/27 02:46:08;;;;;;;;;;;16.20;41.70;;;;;;5078311;28;19927;-67
2023/04/27 02:48:34;;;;;;;;;;;16.20;42.40;;;;;;5059257;28;19929;-67
2023/04/27 02:51:02;;;;;;;;;;;16.10;41.60;;;;;;5061125;28;20009;-67
2023/04/27 02:53:27;;;;;;;;;;;16.10;41.60;;;;;;5058218;28;19924;-67
2023/04/27 02:55:53;;;;;;;;;;;16.10;41.60;;;;;;5056779;28;20001;-67
2023/04/27 02:58:18;;;;;;;;;;;16.10;41.60;;;;;;5061948;28;19928;-67
2023/04/27 03:00:44;;;;;;;;;;;16.10;41.60;;;;;;5059426;28;20023;-67
2023/04/27 03:03:10;;;;;;;;;;;16.10;41.60;;;;;;5076396;28;20435;-67
2023/04/27 03:05:36;;;;;;;;;;;16.10;41.60;;;;;;5077890;28;19968;-67
2023/04/27 03:08:01;;;;;;;;;;;16.10;41.60;;;;;;5060098;28;20003;-67
2023/04/27 03:10:27;;;;;;;;;;;16.10;41.60;;;;;;5058370;28;20456;-67
2023/04/27 03:12:52;;;;;;;;;;;16.00;41.60;;;;;;5060084;28;19928;-67
2023/04/27 03:15:18;;;;;;;;;;;16.10;41.60;;;;;;5057754;28;20391;-67
2023/04/27 03:17:43;;;;;;;;;;;16.00;41.50;;;;;;5078031;28;19920;-67
2023/04/27 03:20:09;;;;;;;;;;;16.00;41.50;;;;;;5057612;28;20392;-67
2023/04/27 03:22:35;;;;;;;;;;;16.00;41.50;;;;;;5060205;28;20006;-68
2023/04/27 03:25:00;;;;;;;;;;;16.10;41.50;;;;;;5056745;28;19931;-67
2023/04/27 03:27:26;;;;;;;;;;;16.00;41.50;;;;;;5059066;28;19920;-67
2023/04/27 03:29:52;;;;;;;;;;;16.00;41.50;;;;;;5056117;28;20288;-67
2023/04/27 03:32:18;;;;;;;;;;;16.00;41.50;;;;;;5071919;28;19924;-67
2023/04/27 03:34:43;;;;;;;;;;;16.00;41.50;;;;;;5056142;28;19932;-67
2023/04/27 03:37:09;;;;;;;;;;;16.00;41.50;;;;;;5059288;28;19936;-67
2023/04/27 03:39:34;;;;;;;;;;;16.00;41.50;;;;;;5058280;28;20273;-67
2023/04/27 03:42:01;;;;;;;;;;;16.00;41.50;;;;;;5062027;28;19931;-67
2023/04/27 03:44:26;;;;;;;;;;;16.00;41.40;;;;;;5055704;28;19925;-66
2023/04/27 03:46:52;;;;;;;;;;;15.90;41.40;;;;;;5056215;28;19927;-67
2023/04/27 03:49:17;;;;;;;;;;;15.90;41.40;;;;;;5059981;28;19967;-67
2023/04/27 03:51:43;;;;;;;;;;;15.90;41.40;;;;;;5058917;28;19920;-67
2023/04/27 03:54:08;;;;;;;;;;;15.90;41.40;;;;;;5059006;28;20280;-67
2023/04/27 03:56:34;;;;;;;;;;;15.90;41.40;;;;;;5065112;28;19980;-67
2023/04/27 03:59:00;;;;;;;;;;;15.90;41.40;;;;;;5055702;28;20065;-67
2023/04/27 04:01:25;;;;;;;;;;;16.00;41.40;;;;;;5056067;28;20280;-67
2023/04/27 04:03:51;;;;;;;;;;;15.90;41.40;;;;;;5056276;28;19921;-67
2023/04/27 04:06:16;;;;;;;;;;;15.90;41.30;;;;;;5056746;28;19931;-67
2023/04/27 04:08:42;;;;;;;;;;;15.90;41.30;;;;;;5055317;28;19921;-67
2023/04/27 04:11:07;;;;;;;;;;;15.90;41.20;;;;;;5076142;28;19932;-67
2023/04/27 04:13:34;;;;;;;;;;;15.90;41.20;;;;;;5056643;28;19960;-67
2023/04/27 04:16:02;;;;;;;;;;;15.90;41.20;;;;;;5075237;28;20391;-67
2023/04/27 04:18:27;;;;;;;;;;;15.90;42.00;;;;;;5058689;28;19935;-67
2023/04/27 04:20:53;;;;;;;;;;;15.90;41.30;;;;;;5056261;28;20269;-67
2023/04/27 04:23:18;;;;;;;;;;;15.90;41.20;;;;;;5073153;28;19925;-67
2023/04/27 04:25:44;;;;;;;;;;;15.90;41.20;;;;;;5057389;28;20041;-67
2023/04/27 04:28:10;;;;;;;;;;;15.80;41.20;;;;;;5057427;28;19925;-67
2023/04/27 04:30:35;;;;;;;;;;;15.90;41.20;;;;;;5057226;28;19927;-67
2023/04/27 04:33:01;;;;;;;;;;;15.80;42.00;;;;;;5057663;28;19921;-67
2023/04/27 04:35:27;;;;;;;;;;;15.80;41.20;;;;;;5076661;28;19949;-67
2023/04/27 04:37:52;;;;;;;;;;;15.80;41.20;;;;;;5057648;28;19927;-67
2023/04/27 04:40:18;;;;;;;;;;;15.80;41.20;;;;;;5064017;28;19929;-67
2023/04/27 04:42:43;;;;;;;;;;;15.80;41.20;;;;;;5070828;28;19964;-67
2023/04/27 04:45:09;;;;;;;;;;;15.80;41.20;;;;;;5062901;28;19920;-67
2023/04/27 04:47:35;;;;;;;;;;;15.80;41.20;;;;;;5061344;28;19921;-67
2023/04/27 04:50:01;;;;;;;;;;;15.80;41.20;;;;;;5060096;28;19928;-67
2023/04/27 04:52:26;;;;;;;;;;;15.80;41.20;;;;;;5059379;28;20284;-67
2023/04/27 04:54:52;;;;;;;;;;;15.80;41.20;;;;;;5061604;28;20391;-67
2023/04/27 04:57:18;;;;;;;;;;;15.80;41.20;;;;;;5060090;28;20450;-67
2023/04/27 04:59:43;;;;;;;;;;;15.80;41.20;;;;;;5077827;28;19928;-67
2023/04/27 05:02:08;;;;;;;;;;;15.80;41.20;;;;;;5061576;28;19955;-67
2023/04/27 05:04:34;;;;;;;;;;;15.80;41.30;;;;;;5060264;28;20418;-67
2023/04/27 05:07:00;;;;;;;;;;;15.70;41.20;;;;;;5060228;28;19924;-67
2023/04/27 05:09:25;;;;;;;;;;;15.80;41.20;;;;;;5059118;28;19920;-67
2023/04/27 05:11:51;;;;;;;;;;;15.80;41.20;;;;;;5063724;28;19921;-67
2023/04/27 05:14:16;;;;;;;;;;;15.80;41.20;;;;;;5058468;28;19952;-67
2023/04/27 05:16:42;;;;;;;;;;;15.80;41.20;;;;;;5059575;28;19970;-67
2023/04/27 05:19:07;;;;;;;;;;;15.80;41.20;;;;;;5059535;28;19935;-67
2023/04/27 05:21:33;;;;;;;;;;;15.70;41.20;;;;;;5061325;28;19921;-67
2023/04/27 05:23:58;;;;;;;;;;;15.70;41.20;;;;;;5060856;28;20292;-67
2023/04/27 05:26:24;;;;;;;;;;;15.70;41.20;;;;;;5058014;28;19921;-67
2023/04/27 05:28:50;;;;;;;;;;;15.80;41.20;;;;;;5060101;28;19991;-67
2023/04/27 05:31:15;;;;;;;;;;;15.80;41.20;;;;;;5060829;28;19998;-67
2023/04/27 05:33:41;;;;;;;;;;;15.70;41.20;;;;;;5059507;28;20056;-67
2023/04/27 05:36:06;;;;;;;;;;;15.70;41.20;;;;;;5061326;28;19931;-67
2023/04/27 05:38:33;;;;;;;;;;;15.70;41.20;;;;;;5059990;28;20381;-67
2023/04/27 05:40:59;;;;;;;;;;;15.70;41.20;;;;;;5059856;28;19920;-67
2023/04/27 05:43:25;;;;;;;;;;;15.80;41.20;;;;;;5058663;28;20011;-66
2023/04/27 05:45:50;;;;;;;;;;;15.80;41.20;;;;;;5060829;28;19920;-67
2023/04/27 05:48:16;;;;;;;;;;;15.70;41.20;;;;;;5059304;28;20019;-67
2023/04/27 05:50:42;;;;;;;;;;;15.80;41.30;;;;;;5075440;28;19921;-67
2023/04/27 05:53:07;;;;;;;;;;;15.70;41.20;;;;;;5064002;28;20383;-67
2023/04/27 05:55:33;;;;;;;;;;;15.80;41.30;;;;;;5060323;28;20425;-67
2023/04/27 05:57:58;;;;;;;;;;;15.80;41.30;;;;;;5063834;28;19921;-67
2023/04/27 06:00:24;;;;;;;;;;;15.80;41.30;;;;;;5060459;28;20004;-67
2023/04/27 06:02:50;;;;;;;;;;;15.80;41.30;;;;;;5059326;28;19921;-67
2023/04/27 06:05:16;;;;;;;;;;;15.80;41.30;;;;;;5060404;28;20019;-67
2023/04/27 06:07:42;;;;;;;;;;;15.80;41.30;;;;;;5059227;28;19928;-67
2023/04/27 06:10:08;;;;;;;;;;;15.80;41.30;;;;;;5057914;28;19925;-67
2023/04/27 06:12:34;;;;;;;;;;;15.80;41.30;;;;;;5060327;28;20443;-67
2023/04/27 06:15:02;;;;;;;;;;;15.80;41.30;;;;;;5059349;28;19991;-67
2023/04/27 06:17:27;;;;;;;;;;;15.70;41.30;;;;;;5058945;28;19994;-67
2023/04/27 06:19:53;;;;;;;;;;;15.80;41.30;;;;;;5061716;28;19972;-67
2023/04/27 06:22:18;;;;;;;;;;;15.80;41.30;;;;;;5060808;28;19925;-67
2023/04/27 06:24:44;;;;;;;;;;;15.70;41.30;;;;;;5058592;28;19920;-67
2023/04/27 06:27:09;;;;;;;;;;;15.80;41.40;;;;;;5060012;28;20015;-67
2023/04/27 06:29:35;;;;;;;;;;;15.70;41.40;;;;;;5056937;28;19932;-67
2023/04/27 06:32:04;;;;;;;;;;;15.70;41.40;;;;;;5058369;28;19924;-67
2023/04/27 06:34:29;;;;;;;;;;;15.70;41.40;;;;;;5057332;28;19946;-67
2023/04/27 06:36:55;;;;;;;;;;;15.70;41.40;;;;;;5057871;28;19924;-67
2023/04/27 06:39:20;;;;;;;;;;;15.70;41.40;;;;;;5060777;28;19920;-67
2023/04/27 06:41:46;;;;;;;;;;;15.70;41.40;;;;;;5057750;28;19925;-67
2023/04/27 06:44:11;;;;;;;;;;;15.70;41.40;;;;;;5057542;28;19931;-66
2023/04/27 06:46:37;;;;;;;;;;;15.70;41.50;;;;;;5056117;28;19925;-67
2023/04/27 06:49:02;;;;;;;;;;;15.70;41.50;;;;;;5059338;28;19924;-67
2023/04/27 06:51:28;;;;;;;;;;;15.70;41.50;;;;;;5065711;28;19920;-67
2023/04/27 06:53:56;;;;;;;;;;;15.70;41.50;;;;;;5057213;28;20383;-67
2023/04/27 06:56:21;;;;;;;;;;;15.70;41.50;;;;;;5057442;28;20343;-68
2023/04/27 06:58:46;;;;;;;;;;;15.70;41.40;;;;;;5058171;28;19972;-66
2023/04/27 07:01:12;;;;;;;;;;;15.70;41.40;;;;;;5059121;28;19927;-67
2023/04/27 07:03:38;;;;;;;;;;;15.70;41.40;;;;;;5075787;28;20380;-67
2023/04/27 07:06:03;;;;;;;;;;;15.70;41.40;;;;;;5072779;28;19921;-67
2023/04/27 07:08:29;;;;;;;;;;;15.70;41.50;;;;;;5056939;28;20376;-67
2023/04/27 07:10:55;;;;;;;;;;;15.70;41.50;;;;;;5058126;28;20391;-67
2023/04/27 07:13:20;;;;;;;;;;;15.70;41.50;;;;;;5075935;28;20339;-67
2023/04/27 07:15:46;;;;;;;;;;;15.70;41.50;;;;;;5059496;28;19933;-67
2023/04/27 07:18:11;;;;;;;;;;;15.60;41.50;;;;;;5056629;28;19928;-67
2023/04/27 07:20:37;;;;;;;;;;;15.60;41.60;;;;;;5058051;28;19924;-67
2023/04/27 07:23:02;;;;;;;;;;;15.60;42.30;;;;;;5058552;28;19971;-69
2023/04/27 07:25:28;;;;;;;;;;;15.60;41.60;;;;;;5058549;28;19920;-68
2023/04/27 07:27:53;;;;;;;;;;;15.60;41.70;;;;;;5073273;28;20364;-67
2023/04/27 07:30:19;;;;;;;;;;;15.60;41.60;;;;;;5057061;28;19968;-67
2023/04/27 07:32:45;;;;;;;;;;;15.60;41.70;;;;;;5057434;28;20372;-67
2023/04/27 07:35:12;;;;;;;;;;;15.60;41.70;;;;;;5058779;28;19928;-69
2023/04/27 07:37:37;;;;;;;;;;;15.50;41.70;;;;;;5056089;28;19924;-67
2023/04/27 07:40:15;;;;;;;;;;;15.50;41.70;;;;;;5062071;28;19927;-66
2023/04/27 07:42:41;;;;;;;;;;;15.50;41.70;;;;;;5061463;28;20279;-69
2023/04/27 07:45:08;;;;;;;;;;;15.50;41.70;;;;;;5062707;28;19921;-67
2023/04/27 07:47:34;;;;;;;;;;;15.40;41.70;;;;;;5058239;28;20384;-68
2023/04/27 07:49:59;;;;;;;;;;;15.40;41.70;;;;;;5055781;28;19928;-67
2023/04/27 07:52:25;;;;;;;;;;;15.40;41.80;;;;;;5055821;28;19964;-67
2023/04/27 07:54:51;;;;;;;;;;;15.30;41.80;;;;;;5057277;28;19931;-67
2023/04/27 07:57:16;;;;;;;;;;;15.30;41.90;;;;;;5056995;28;19985;-67
2023/04/27 07:59:42;;;;;;;;;;;15.30;42.00;;;;;;5059910;28;19967;-67
2023/04/27 08:02:07;;;;;;;;;;;15.30;42.00;;;;;;5057694;28;20292;-67
2023/04/27 08:04:33;;;;;;;;;;;15.30;42.10;;;;;;5057923;28;19920;-67
2023/04/27 08:06:58;;;;;;;;;;;15.20;42.10;;;;;;5056459;28;19927;-67
2023/04/27 08:09:24;;;;;;;;;;;15.20;42.10;;;;;;5053463;28;19921;-67
2023/04/27 08:11:50;;;;;;;;;;;15.20;42.20;;;;;;5056638;28;19927;-67
2023/04/27 08:14:15;;;;;;;;;;;15.20;42.20;;;;;;5064049;28;19928;-67
2023/04/27 08:16:41;;;;;;;;;;;15.30;42.30;;;;;;5060174;28;19924;-69
2023/04/27 08:19:08;;;;;;;;;;;15.20;42.30;;;;;;5062613;28;20416;-69
2023/04/27 08:21:35;;;;;;;;;;;15.20;42.30;;;;;;5062660;28;19920;-67
2023/04/27 08:24:01;;;;;;;;;;;15.20;42.30;;;;;;5060869;28;19925;-69
2023/04/27 08:26:26;;;;;;;;;;;15.10;42.30;;;;;;5065621;28;20341;-67
2023/04/27 08:28:52;;;;;;;;;;;15.20;42.40;;;;;;5059118;28;20007;-67
2023/04/27 08:31:17;;;;;;;;;;;15.20;43.20;;;;;;5067105;28;19921;-67
2023/04/27 08:33:43;;;;;;;;;;;15.20;42.50;;;;;;5056161;28;19924;-67
2023/04/27 08:36:08;;;;;;;;;;;15.20;42.50;;;;;;5058111;28;19925;-67
2023/04/27 08:38:34;;;;;;;;;;;15.20;42.50;;;;;;5058520;28;20280;-67
2023/04/27 08:41:00;;;;;;;;;;;15.20;42.50;;;;;;5079225;28;19925;-68
2023/04/27 08:43:25;;;;;;;;;;;15.10;42.50;;;;;;5059154;28;19924;-68
2023/04/27 08:45:52;;;;;;;;;;;15.10;42.50;;;;;;5060737;28;19924;-67
2023/04/27 08:48:19;;;;;;;;;;;15.10;42.50;;;;;;5060480;28;19982;-67
2023/04/27 08:50:49;;;;;;;;;;;15.10;42.50;;;;;;5059576;28;20011;-67
2023/04/27 08:53:20;;;;;;;;;;;15.10;42.50;;;;;;5059035;28;20326;-69
2023/04/27 08:55:45;;;;;;;;;;;15.10;42.60;;;;;;5058132;28;19971;-67
2023/04/27 08:58:11;;;;;;;;;;;15.10;42.60;;;;;;5060208;28;20350;-67
2023/04/27 09:00:40;;;;;;;;;;;15.10;42.50;;;;;;5057427;28;19952;-68
2023/04/27 09:03:06;;;;;;;;;;;15.10;42.50;;;;;;5058391;28;19927;-68
2023/04/27 09:05:32;;;;;;;;;;;15.20;42.50;;;;;;5065277;28;19927;-69
2023/04/27 09:08:01;;;;;;;;;;;15.20;42.30;;;;;;5061243;28;19925;-67
2023/04/27 09:10:28;;;;;;;;;;;15.30;42.30;;;;;;5058879;28;19971;-67
2023/04/27 09:12:54;;;;;;;;;;;15.30;42.20;;;;;;5059791;28;19924;-67
2023/04/27 09:15:20;;;;;;;;;;;15.40;42.10;;;;;;5059696;28;19931;-67
2023/04/27 09:17:45;;;;;;;;;;;15.40;42.00;;;;;;5080396;28;20342;-69
2023/04/27 09:20:12;;;;;;;;;;;15.40;41.90;;;;;;5059075;28;19935;-70
2023/04/27 09:22:41;;;;;;;;;;;15.40;41.80;;;;;;5062125;28;19995;-69
2023/04/27 09:25:07;;;;;;;;;;;15.50;41.70;;;;;;5060701;28;20015;-66
2023/04/27 09:27:32;;;;;;;;;;;15.50;41.70;;;;;;5079565;28;20007;-67
2023/04/27 09:29:58;;;;;;;;;;;15.40;41.60;;;;;;5058494;28;19924;-67
2023/04/27 09:32:23;;;;;;;;;;;15.50;41.70;;;;;;5057590;28;19954;-67
2023/04/27 09:34:49;;;;;;;;;;;15.50;41.70;;;;;;5058428;28;19924;-69
2023/04/27 09:37:15;;;;;;;;;;;15.50;41.60;;;;;;5060310;28;20418;-68
2023/04/27 09:39:41;;;;;;;;;;;15.60;41.70;;;;;;5062089;28;20403;-67
2023/04/27 09:42:07;;;;;;;;;;;15.60;41.60;;;;;;5063628;28;19921;-69
2023/04/27 09:44:33;;;;;;;;;;;15.60;41.60;;;;;;5057263;28;19930;-68
2023/04/27 09:47:00;;;;;;;;;;;15.60;41.50;;;;;;5058106;28;19920;-67
2023/04/27 09:49:26;;;;;;;;;;;15.60;41.50;;;;;;5059486;28;20022;-67
2023/04/27 09:51:53;;;;;;;;;;;15.60;41.40;;;;;;5061525;28;19929;-68
2023/04/27 09:54:20;;;;;;;;;;;15.60;41.40;;;;;;5058307;28;19924;-68
2023/04/27 09:57:07;;;;;;;;;;;15.60;41.40;;;;;;5060488;28;19929;-67
2023/04/27 09:59:53;;;;;;;;;;;15.70;41.30;;;;;;5075198;28;20082;-67
2023/04/27 10:02:20;;;;;;;;;;;15.60;41.20;;;;;;5074730;28;19962;-67
2023/04/27 10:05:01;;;;;;;;;;;15.70;41.20;;;;;;5075359;28;19971;-67
2023/04/27 10:07:28;;;;;;;;;;;15.70;41.20;;;;;;5064661;28;19928;-69
2023/04/27 10:09:53;;;;;;;;;;;15.70;41.20;;;;;;5058936;28;19966;-67
2023/04/27 10:12:21;;;;;;;;;;;15.70;42.00;;;;;;5058151;28;20399;-67
2023/04/27 10:14:47;;;;;;;;;;;15.70;41.10;;;;;;5056452;28;19927;-69
2023/04/27 10:17:13;;;;;;;;;;;15.70;41.10;;;;;;5058257;28;19921;-69
2023/04/27 10:19:38;;;;;;;;;;;15.70;41.10;;;;;;5059926;28;19920;-69
2023/04/27 10:22:06;;;;;;;;;;;15.70;41.20;;;;;;5062240;28;19921;-67
2023/04/27 10:24:35;;;;;;;;;;;15.70;41.10;;;;;;5058723;28;19955;-69
2023/04/27 10:27:02;;;;;;;;;;;15.70;41.20;;;;;;5057978;28;20295;-69
2023/04/27 10:29:34;;;;;;;;;;;15.70;41.20;;;;;;5059601;28;20015;-68
2023/04/27 10:32:04;;;;;;;;;;;15.70;41.20;;;;;;5062794;28;19975;-67
2023/04/27 10:34:32;;;;;;;;;;;15.70;41.20;;;;;;5056754;28;19978;-67
2023/04/27 10:37:03;;;;;;;;;;;15.70;41.20;;;;;;5068677;28;20636;-68
2023/04/27 10:39:33;;;;;;;;;;;15.70;41.20;;;;;;5057988;28;19929;-67
2023/04/27 10:41:59;;;;;;;;;;;15.70;41.30;;;;;;5061712;28;20015;-67
2023/04/27 10:44:27;;;;;;;;;;;15.60;41.20;;;;;;5077129;28;19927;-67
2023/04/27 10:46:53;;;;;;;;;;;15.60;41.20;;;;;;5056660;28;20300;-67
2023/04/27 10:49:19;;;;;;;;;;;15.60;41.20;;;;;;5058529;28;19921;-68
2023/04/27 10:51:46;;;;;;;;;;;15.60;41.30;;;;;;5061697;28;19920;-67
2023/04/27 10:54:12;;;;;;;;;;;15.60;41.30;;;;;;5057903;28;19977;-68
2023/04/27 10:56:37;;;;;;;;;;;15.60;41.30;;;;;;5057063;28;19928;-67
2023/04/27 10:59:03;;;;;;;;;;;15.60;41.30;;;;;;5055751;28;19921;-68
2023/04/27 11:01:29;;;;;;;;;;;15.60;41.30;;;;;;5057479;28;19920;-68
2023/04/27 11:03:56;;;;;;;;;;;15.60;41.30;;;;;;5058318;28;19921;-68
2023/04/27 11:06:22;;;;;;;;;;;15.60;41.40;;;;;;5057879;28;19931;-68
2023/04/27 11:08:47;;;;;;;;;;;15.60;41.40;;;;;;5059218;28;19925;-68
2023/04/27 11:11:13;;;;;;;;;;;15.60;41.40;;;;;;5056877;28;19982;-68
2023/04/27 11:13:39;;;;;;;;;;;15.60;41.40;;;;;;5059726;28;19967;-69
2023/04/27 11:16:05;;;;;;;;;;;15.60;41.40;;;;;;5059826;28;19929;-68
2023/04/27 11:18:32;;;;;;;;;;;15.60;41.40;;;;;;5058793;28;19927;-67
2023/04/27 11:21:19;;;;;;;;;;;15.60;41.40;;;;;;5057542;28;19932;-68
2023/04/27 11:23:44;;;;;;;;;;;15.50;41.40;;;;;;5061792;28;19999;-67
2023/04/27 11:29:01;;;;;;;;;;;15.60;41.60;;;;;;5077792;28;19923;-67
2023/04/27 11:31:37;;;;;;;;;;;15.60;41.50;;;;;;5052601;28;19974;-67
2023/04/27 11:34:03;;;;;;;;;;;15.60;41.60;;;;;;5059597;28;19964;-68
2023/04/27 11:36:28;;;;;;;;;;;15.60;41.50;;;;;;5061821;28;19967;-67
2023/04/27 11:38:57;;;;;;;;;;;15.60;41.60;;;;;;5060830;28;19947;-67
2023/04/27 11:41:31;;;;;;;;;;;15.60;41.60;;;;;;5062554;28;20315;-67
2023/04/27 11:44:02;;;;;;;;;;;15.60;41.70;;;;;;5061197;28;19974;-67
2023/04/27 11:46:27;;;;;;;;;;;15.60;41.70;;;;;;5061029;28;19968;-67
2023/04/27 11:48:59;;;;;;;;;;;15.60;41.70;;;;;;5061176;28;19920;-67
2023/04/27 11:51:25;;;;;;;;;;;15.60;41.70;;;;;;5058406;28;20289;-67
2023/04/27 11:53:51;;;;;;;;;;;15.60;41.70;;;;;;5061573;28;19935;-68
2023/04/27 11:56:17;;;;;;;;;;;15.60;41.70;;;;;;5060636;28;19920;-67
2023/04/27 11:58:43;;;;;;;;;;;15.60;41.70;;;;;;5077926;28;20011;-67
2023/04/27 12:01:09;;;;;;;;;;;15.50;41.70;;;;;;5061660;28;19947;-67
2023/04/27 12:03:35;;;;;;;;;;;15.60;41.70;;;;;;5062307;28;19924;-67
2023/04/27 12:06:00;;;;;;;;;;;15.60;41.80;;;;;;5059410;28;20270;-68
2023/04/27 12:08:26;;;;;;;;;;;15.60;41.70;;;;;;5060466;28;19972;-68
2023/04/27 12:10:52;;;;;;;;;;;15.60;41.80;;;;;;5061009;28;19943;-67
2023/04/27 12:13:17;;;;;;;;;;;15.50;41.70;;;;;;5061497;28;19974;-68
2023/04/27 12:15:43;;;;;;;;;;;15.60;41.70;;;;;;5062138;28;19928;-68
2023/04/27 12:18:09;;;;;;;;;;;15.50;41.70;;;;;;5060692;28;20023;-68
2023/04/27 12:20:34;;;;;;;;;;;15.60;41.80;;;;;;5061586;28;19983;-68
2023/04/27 12:23:00;;;;;;;;;;;15.50;41.70;;;;;;5057400;28;19935;-67
2023/04/27 12:25:25;;;;;;;;;;;15.60;41.80;;;;;;5076970;28;19968;-68
2023/04/27 12:27:51;;;;;;;;;;;15.60;41.80;;;;;;5060696;28;20416;-68
2023/04/27 12:30:16;;;;;;;;;;;15.60;41.80;;;;;;5061127;28;19925;-68
2023/04/27 12:32:42;;;;;;;;;;;15.50;41.80;;;;;;5061414;28;20316;-68
2023/04/27 12:35:08;;;;;;;;;;;15.50;41.70;;;;;;5060579;28;20405;-67
2023/04/27 12:37:34;;;;;;;;;;;15.50;41.70;;;;;;5060882;28;19967;-67
2023/04/27 12:40:00;;;;;;;;;;;15.60;41.90;;;;;;5047420;28;20360;-68
2023/04/27 12:42:26;;;;;;;;;;;15.60;41.90;;;;;;5048264;28;20015;-67
2023/04/27 12:44:52;;;;;;;;;;;15.60;41.90;;;;;;5047667;28;20004;-67
2023/04/27 12:47:21;;;;;;;;;;;15.60;41.80;;;;;;5046696;28;19925;-67
2023/04/27 12:49:46;;;;;;;;;;;15.60;41.80;;;;;;5049807;28;19928;-67
2023/04/27 12:52:12;;;;;;;;;;;15.60;41.80;;;;;;5046360;28;19925;-67
2023/04/27 12:54:38;;;;;;;;;;;15.60;41.80;;;;;;5046521;28;20051;-68
2023/04/27 12:57:05;;;;;;;;;;;15.60;41.80;;;;;;5046434;28;19940;-67
2023/04/27 12:59:31;;;;;;;;;;;15.60;41.80;;;;;;5064159;28;19967;-67
2023/04/27 13:01:57;;;;;;;;;;;15.60;41.90;;;;;;5045046;28;19947;-67
2023/04/27 13:04:22;;;;;;;;;;;15.60;41.80;;;;;;5047534;28;19921;-67
2023/04/27 13:06:48;;;;;;;;;;;15.60;41.80;;;;;;5046129;28;20019;-67
2023/04/27 13:09:14;;;;;;;;;;;15.60;41.80;;;;;;5047701;28;20501;-67
2023/04/27 13:11:39;;;;;;;;;;;15.60;41.90;;;;;;5044967;28;20392;-67
2023/04/27 13:14:05;;;;;;;;;;;15.60;41.80;;;;;;5048150;28;19947;-67
2023/04/27 13:16:30;;;;;;;;;;;15.60;41.90;;;;;;5063685;28;19952;-68
2023/04/27 13:18:56;;;;;;;;;;;15.60;41.90;;;;;;5047199;28;19974;-67
2023/04/27 13:21:22;;;;;;;;;;;15.60;41.90;;;;;;5046792;28;19921;-67
2023/04/27 13:23:48;;;;;;;;;;;15.60;42.00;;;;;;5045378;28;20356;-67
2023/04/27 13:26:14;;;;;;;;;;;15.60;42.00;;;;;;5062744;28;19921;-67
2023/04/27 13:28:40;;;;;;;;;;;15.60;41.90;;;;;;5067076;28;20295;-68
2023/04/27 13:31:05;;;;;;;;;;;15.60;42.00;;;;;;5065623;28;19920;-67
2023/04/27 13:33:31;;;;;;;;;;;15.60;42.00;;;;;;5049222;28;20338;-67
2023/04/27 13:35:57;;;;;;;;;;;15.60;42.00;;;;;;5065993;28;20399;-67
2023/04/27 13:38:23;;;;;;;;;;;15.60;42.00;;;;;;5065422;28;19921;-67
2023/04/27 13:40:48;;;;;;;;;;;15.60;42.00;;;;;;5067504;28;19928;-67
2023/04/27 13:43:14;;;;;;;;;;;15.60;42.00;;;;;;5067857;28;19960;-67
2023/04/27 13:45:41;;;;;;;;;;;15.60;42.10;;;;;;5066474;28;20356;-67
2023/04/27 13:48:06;;;;;;;;;;;15.60;42.10;;;;;;5048717;28;20073;-67
2023/04/27 13:50:32;;;;;;;;;;;15.60;42.10;;;;;;5066824;28;20006;-67
2023/04/27 13:52:57;;;;;;;;;;;15.60;42.10;;;;;;5048577;28;19920;-67
2023/04/27 13:55:23;;;;;;;;;;;15.70;42.20;;;;;;5049135;28;20357;-67
2023/04/27 13:57:48;;;;;;;;;;;15.60;42.10;;;;;;5066600;28;19920;-67
2023/04/27 14:00:14;;;;;;;;;;;15.70;42.20;;;;;;5061693;28;19938;-67
2023/04/27 14:02:40;;;;;;;;;;;15.60;42.20;;;;;;5048925;28;19921;-67
2023/04/27 14:05:05;;;;;;;;;;;15.70;42.40;;;;;;5065030;28;19928;-67
2023/04/27 14:07:33;;;;;;;;;;;15.70;42.30;;;;;;5064808;28;19982;-67
2023/04/27 14:09:58;;;;;;;;;;;15.70;42.30;;;;;;5066020;28;20399;-67
2023/04/27 14:12:24;;;;;;;;;;;15.70;42.30;;;;;;5048565;28;20011;-67